Alaska Titan — WDE4789 — position and weather

sailwx.info

Track history (hours):
 
Tides and Currents Weather Stations Pressure Air Temp Water Temp Dewpoint Dewpoint Depression Visibility Wind Speed Wind Dir Waves Ship Positions

Alaska Titan

Owner: WESTERN TOWBOAT CO, Seattle, WA. More information available from US FCC via Universal Licensing System and Coast Guard Vessel Documentation Center.

Last reported at 2017-May-24 11:00 UTC. Time now 2017-May-24 11:28 UTC.
Position N 47°57' W 122°35'.

Length 40 m; draft 6 m.

Type: Tow > 200 m length. MMSI: 367357890.

Date/timePositionNaut miles runAvg speedWind from/ knotsBaromVisibWave heightAir tempDewpointWater temp
2017-May-24 11:00N 47°57' W 122°35'11 8.5
2017-May-24 09:46N 48°07' W 122°41'3 9.8
2017-May-24 09:30N 48°09' W 122°44'510.1
2017-May-24 08:58N 48°13' W 122°49'4 9.1
2017-May-24 08:29N 48°17' W 122°48'4 8.7
2017-May-24 07:59N 48°21' W 122°46'4 8.1
2017-May-24 07:30N 48°25' W 122°45'4 8.5
2017-May-24 07:00N 48°29' W 122°45'4 8.9
2017-May-24 06:30N 48°34' W 122°45'4 8.4
2017-May-24 06:00N 48°38' W 122°44'4 8.9
2017-May-24 05:30N 48°42' W 122°45'5 9.0
2017-May-24 04:58N 48°46' W 122°50'510.0
2017-May-24 04:27N 48°49' W 122°56'4 9.9
2017-May-24 04:00N 48°51' W 123°02'510.8
2017-May-24 03:29N 48°55' W 123°09'712.0
2017-May-24 02:53N 48°60' W 123°17'511.7
2017-May-24 02:25N 49°03' W 123°23'511.0
2017-May-24 01:56N 49°07' W 123°29'4210.5
2017-May-23 21:55N 49°33' W 124°19'510.3
2017-May-23 21:23N 49°36' W 124°27'410.6
2017-May-23 20:58N 49°38' W 124°32'510.6
2017-May-23 20:30N 49°41' W 124°38'510.1
2017-May-23 20:00N 49°44' W 124°45'510.2
2017-May-23 19:30N 49°47' W 124°51'510.0
2017-May-23 19:00N 49°51' W 124°57'5 9.8
2017-May-23 18:30N 49°54' W 125°03'510.0
2017-May-23 18:00N 49°57' W 125°09'510.5
2017-May-23 17:30N 50°01' W 125°13'5 9.9
2017-May-23 17:00N 50°05' W 125°17'4 7.7
2017-May-23 16:31N 50°08' W 125°21'2 4.9
2017-May-23 16:00N 50°10' W 125°22'4 7.7
2017-May-23 15:30N 50°14' W 125°23'4 8.1
2017-May-23 14:59N 50°18' W 125°25'10 5.7
2017-May-23 13:09N 50°22' W 125°40'44 6.7
2017-May-23 06:34N 50°37' W 126°46'410.4
2017-May-23 06:13N 50°39' W 126°50'2 9.0
2017-May-23 05:59N 50°41' W 126°53'5 7.8
2017-May-23 05:23N 50°43' W 126°59'4 8.8
2017-May-23 04:58N 50°45' W 127°04'4 8.9
2017-May-23 04:29N 50°47' W 127°10'4 9.0
2017-May-23 04:00N 50°50' W 127°15'5 9.3
2017-May-23 03:30N 50°53' W 127°21'5 9.5
2017-May-23 03:00N 50°56' W 127°26'510.1
2017-May-23 02:30N 50°59' W 127°33'5 9.5
2017-May-23 02:00N 51°02' W 127°38'5 9.9
2017-May-23 01:30N 51°05' W 127°44'510.0
2017-May-23 00:59N 51°09' W 127°50'510.1
2017-May-23 00:30N 51°14' W 127°52'11 9.9
2017-May-22 23:24N 51°23' W 128°00'4 9.3
2017-May-22 23:00N 51°26' W 128°05'5 9.4
2017-May-22 22:30N 51°29' W 128°10'5 9.6
2017-May-22 22:00N 51°33' W 128°14'510.0
2017-May-22 21:30N 51°37' W 128°19'510.2
2017-May-22 21:00N 51°41' W 128°24'510.0
2017-May-22 20:30N 51°45' W 128°28'5 9.5
2017-May-22 20:00N 51°49' W 128°32'5 9.4
2017-May-22 19:30N 51°54' W 128°34'5 9.8
2017-May-22 19:01N 51°58' W 128°36'5 9.9
2017-May-22 18:30N 52°03' W 128°39'  
2017-May-19 12:00N 58°54' W 140°36'6110.2 240 / 51020.010.8 10.4
2017-May-19 06:00N 59°12' W 142°30'   150 / 151019.5 5.4 7.2
2017-May-16 12:00N 59°36' W 144°18'52 8.7 1014.5 1.1 7.2
2017-May-16 06:00N 59°18' W 142°42'102 8.5 230 / 151014.510.8 10.0
2017-May-15 18:00N 58°42' W 139°36'53 8.9 290 / 151003.810.8
2017-May-15 12:00N 58°24' W 138°00'   320 / 151007.010.8 8.3
Track history (hours):
 
Tides and Currents Weather Stations Pressure Air Temp Water Temp Dewpoint Dewpoint Depression Visibility Wind Speed Wind Dir Waves Ship Positions

Alaska Titan

Owner: WESTERN TOWBOAT CO, Seattle, WA. More information available from US FCC via Universal Licensing System and Coast Guard Vessel Documentation Center.

Last reported at 2017-May-24 11:00 UTC. Time now 2017-May-24 11:28 UTC.
Position N 47°57' W 122°35'.

Length 40 m; draft 6 m.

Type: Tow > 200 m length. MMSI: 367357890.

Date/timePositionNaut miles runAvg speedWind from/ knotsBaromVisibWave heightAir tempDewpointWater temp
2017-May-24 11:00N 47°57' W 122°35'11 8.5
2017-May-24 09:46N 48°07' W 122°41'3 9.8
2017-May-24 09:30N 48°09' W 122°44'510.1
2017-May-24 08:58N 48°13' W 122°49'4 9.1
2017-May-24 08:29N 48°17' W 122°48'4 8.7
2017-May-24 07:59N 48°21' W 122°46'4 8.1
2017-May-24 07:30N 48°25' W 122°45'4 8.5
2017-May-24 07:00N 48°29' W 122°45'4 8.9
2017-May-24 06:30N 48°34' W 122°45'4 8.4
2017-May-24 06:00N 48°38' W 122°44'4 8.9
2017-May-24 05:30N 48°42' W 122°45'5 9.0
2017-May-24 04:58N 48°46' W 122°50'510.0
2017-May-24 04:27N 48°49' W 122°56'4 9.9
2017-May-24 04:00N 48°51' W 123°02'510.8
2017-May-24 03:29N 48°55' W 123°09'712.0
2017-May-24 02:53N 48°60' W 123°17'511.7
2017-May-24 02:25N 49°03' W 123°23'511.0
2017-May-24 01:56N 49°07' W 123°29'4210.5
2017-May-23 21:55N 49°33' W 124°19'510.3
2017-May-23 21:23N 49°36' W 124°27'410.6
2017-May-23 20:58N 49°38' W 124°32'510.6
2017-May-23 20:30N 49°41' W 124°38'510.1
2017-May-23 20:00N 49°44' W 124°45'510.2
2017-May-23 19:30N 49°47' W 124°51'510.0
2017-May-23 19:00N 49°51' W 124°57'5 9.8
2017-May-23 18:30N 49°54' W 125°03'510.0
2017-May-23 18:00N 49°57' W 125°09'510.5
2017-May-23 17:30N 50°01' W 125°13'5 9.9
2017-May-23 17:00N 50°05' W 125°17'4 7.7
2017-May-23 16:31N 50°08' W 125°21'2 4.9
2017-May-23 16:00N 50°10' W 125°22'4 7.7
2017-May-23 15:30N 50°14' W 125°23'4 8.1
2017-May-23 14:59N 50°18' W 125°25'10 5.7
2017-May-23 13:09N 50°22' W 125°40'44 6.7
2017-May-23 06:34N 50°37' W 126°46'410.4
2017-May-23 06:13N 50°39' W 126°50'2 9.0
2017-May-23 05:59N 50°41' W 126°53'5 7.8
2017-May-23 05:23N 50°43' W 126°59'4 8.8
2017-May-23 04:58N 50°45' W 127°04'4 8.9
2017-May-23 04:29N 50°47' W 127°10'4 9.0
2017-May-23 04:00N 50°50' W 127°15'5 9.3
2017-May-23 03:30N 50°53' W 127°21'5 9.5
2017-May-23 03:00N 50°56' W 127°26'510.1
2017-May-23 02:30N 50°59' W 127°33'5 9.5
2017-May-23 02:00N 51°02' W 127°38'5 9.9
2017-May-23 01:30N 51°05' W 127°44'510.0
2017-May-23 00:59N 51°09' W 127°50'510.1
2017-May-23 00:30N 51°14' W 127°52'11 9.9
2017-May-22 23:24N 51°23' W 128°00'4 9.3
2017-May-22 23:00N 51°26' W 128°05'5 9.4
2017-May-22 22:30N 51°29' W 128°10'5 9.6
2017-May-22 22:00N 51°33' W 128°14'510.0
2017-May-22 21:30N 51°37' W 128°19'510.2
2017-May-22 21:00N 51°41' W 128°24'510.0
2017-May-22 20:30N 51°45' W 128°28'5 9.5
2017-May-22 20:00N 51°49' W 128°32'5 9.4
2017-May-22 19:30N 51°54' W 128°34'5 9.8
2017-May-22 19:01N 51°58' W 128°36'5 9.9
2017-May-22 18:30N 52°03' W 128°39'  
2017-May-19 12:00N 58°54' W 140°36'6110.2 240 / 51020.010.8 10.4
2017-May-19 06:00N 59°12' W 142°30'   150 / 151019.5 5.4 7.2
2017-May-16 12:00N 59°36' W 144°18'52 8.7 1014.5 1.1 7.2
2017-May-16 06:00N 59°18' W 142°42'102 8.5 230 / 151014.510.8 10.0
2017-May-15 18:00N 58°42' W 139°36'53 8.9 290 / 151003.810.8
2017-May-15 12:00N 58°24' W 138°00'   320 / 151007.010.8 8.3

Dump ship's entire track history